Time;durP1;ratioP1;P1;durP2;ratioP2;P2;SDS_P1;SDS_P2;PMS_P1;PMS_P2;Temp;Humidity;BMP_temperature;BMP_pressure;BME280_temperature;BME280_humidity;BME280_pressure;Samples;Min_cycle;Max_cycle;Signal;HPM_P1;HPM_P2
2021/09/15 00:01:49;;;;;;;6.93;6.43;;;;;;;18.02;100.00;100343.56;5134352;27;20367;-71
2021/09/15 00:04:14;;;;;;;6.23;5.80;;;;;;;18.09;100.00;100346.50;5133907;27;20542;-72
2021/09/15 00:06:39;;;;;;;6.70;6.20;;;;;;;18.09;100.00;100331.88;5134637;27;20612;-71
2021/09/15 00:09:06;;;;;;;6.97;6.33;;;;;;;18.15;100.00;100330.41;5133223;27;20227;-72
2021/09/15 00:11:31;;;;;;;6.57;6.07;;;;;;;18.22;100.00;100319.47;5133770;27;20252;-71
2021/09/15 00:13:57;;;;;;;6.10;5.70;;;;;;;18.28;100.00;100331.03;5134288;27;20179;-71
2021/09/15 00:16:22;;;;;;;5.93;5.33;;;;;;;18.31;100.00;100335.84;5133857;27;20652;-71
2021/09/15 00:18:47;;;;;;;6.27;5.87;;;;;;;18.33;100.00;100326.00;5133757;27;20253;-71
2021/09/15 00:21:13;;;;;;;7.20;6.47;;;;;;;18.35;100.00;100326.44;5134020;27;20180;-71
2021/09/15 00:23:38;;;;;;;6.47;5.77;;;;;;;18.36;100.00;100330.78;5115179;27;20186;-71
2021/09/15 00:26:03;;;;;;;6.90;6.30;;;;;;;18.40;100.00;100337.22;5133832;27;20183;-71
2021/09/15 00:28:29;;;;;;;6.27;5.77;;;;;;;18.42;100.00;100334.88;5133594;27;20168;-71
2021/09/15 00:30:54;;;;;;;5.83;5.33;;;;;;;18.40;100.00;100331.69;5133483;27;20693;-72
2021/09/15 00:33:19;;;;;;;5.80;5.30;;;;;;;18.46;100.00;100328.59;5133496;27;20198;-71
2021/09/15 00:35:45;;;;;;;5.90;5.50;;;;;;;18.51;100.00;100320.00;5133154;27;20172;-71
2021/09/15 00:38:10;;;;;;;5.90;5.50;;;;;;;18.55;100.00;100323.63;5133329;27;20720;-72
2021/09/15 00:40:35;;;;;;;5.67;5.20;;;;;;;18.53;100.00;100318.47;5133334;27;20176;-72
2021/09/15 00:43:01;;;;;;;5.57;5.17;;;;;;;18.51;100.00;100315.25;5133397;27;20219;-72
2021/09/15 00:45:26;;;;;;;5.83;5.43;;;;;;;18.47;100.00;100322.69;5133087;27;20208;-73
2021/09/15 00:47:51;;;;;;;6.57;6.03;;;;;;;18.43;100.00;100314.34;5132760;27;20172;-72
2021/09/15 00:50:17;;;;;;;6.10;5.60;;;;;;;18.41;100.00;100313.91;5133217;27;20217;-72
2021/09/15 00:52:43;;;;;;;6.07;5.53;;;;;;;18.42;100.00;100306.41;5133372;27;20533;-72
2021/09/15 00:55:09;;;;;;;5.67;5.27;;;;;;;18.43;100.00;100308.00;5132895;27;20210;-73
2021/09/15 00:57:34;;;;;;;6.10;5.70;;;;;;;18.49;100.00;100306.53;5133325;27;20200;-73
2021/09/15 01:00:00;;;;;;;6.17;5.77;;;;;;;18.50;100.00;100308.13;5133181;27;20173;-73
2021/09/15 01:02:27;;;;;;;5.70;5.30;;;;;;;18.51;100.00;100300.63;5132996;27;20173;-72
2021/09/15 01:04:53;;;;;;;5.77;5.27;;;;;;;18.46;100.00;100298.97;5132537;27;20232;-73
2021/09/15 01:07:18;;;;;;;5.63;5.03;;;;;;;18.41;100.00;100296.50;5132944;27;20212;-73
2021/09/15 01:09:46;;;;;;;5.60;5.20;;;;;;;18.36;100.00;100292.06;5114413;27;20177;-73
2021/09/15 01:12:12;;;;;;;7.37;5.50;;;;;;;18.39;100.00;100285.03;5132865;27;20177;-73
2021/09/15 01:14:39;;;;;;;5.70;5.30;;;;;;;18.42;100.00;100276.78;5132577;27;20202;-72
2021/09/15 01:17:04;;;;;;;5.97;5.47;;;;;;;18.45;100.00;100278.00;5132722;27;20196;-72
2021/09/15 01:19:29;;;;;;;6.20;5.70;;;;;;;18.51;100.00;100286.78;5132930;27;20184;-73
2021/09/15 01:21:56;;;;;;;5.60;5.10;;;;;;;18.50;100.00;100283.22;5132641;27;20263;-73
2021/09/15 01:24:24;;;;;;;6.97;5.37;;;;;;;18.48;100.00;100284.75;5132442;27;20246;-73
2021/09/15 01:26:51;;;;;;;5.00;4.63;;;;;;;18.48;100.00;100284.75;5132695;27;20631;-72
2021/09/15 01:29:25;;;;;;;5.37;5.07;;;;;;;18.48;100.00;100282.00;5132647;27;20175;-72
2021/09/15 01:32:02;;;;;;;5.30;4.90;;;;;;;18.46;100.00;100279.59;5132553;27;20256;-73
2021/09/15 01:34:35;;;;;;;5.10;4.70;;;;;;;18.48;100.00;100270.94;5132436;27;20168;-73
2021/09/15 01:37:01;;;;;;;5.67;5.17;;;;;;;18.43;100.00;100275.59;5132580;27;20200;-72
2021/09/15 01:39:26;;;;;;;4.90;4.50;;;;;;;18.39;100.00;100274.75;5132492;27;20253;-73
2021/09/15 01:41:56;;;;;;;4.50;4.20;;;;;;;18.36;100.00;100281.00;5132628;27;20663;-72
2021/09/15 01:44:36;;;;;;;5.20;4.80;;;;;;;18.36;100.00;100288.50;5137521;27;20161;-72
2021/09/15 01:47:03;;;;;;;5.70;4.70;;;;;;;18.29;100.00;100280.88;5136165;27;20180;-72
2021/09/15 01:49:30;;;;;;;5.00;4.53;;;;;;;18.29;100.00;100280.88;5132971;27;20240;-73
2021/09/15 01:51:57;;;;;;;5.23;4.70;;;;;;;18.28;100.00;100276.53;5132477;27;20577;-73
2021/09/15 01:54:23;;;;;;;5.33;5.03;;;;;;;18.33;100.00;100280.94;5132480;27;20169;-72
2021/09/15 01:56:48;;;;;;;6.87;4.40;;;;;;;18.33;100.00;100292.81;5132417;27;20552;-72
2021/09/15 01:59:14;;;;;;;5.07;4.67;;;;;;;18.32;100.00;100284.88;5132365;27;20183;-73
2021/09/15 02:01:39;;;;;;;5.00;4.60;;;;;;;18.20;100.00;100272.00;5132263;27;20175;-72
2021/09/15 02:04:04;;;;;;;5.17;4.87;;;;;;;18.16;100.00;100275.88;5131454;27;20219;-72
2021/09/15 02:06:29;;;;;;;4.87;4.53;;;;;;;18.12;100.00;100273.06;5132145;27;20172;-72
2021/09/15 02:08:55;;;;;;;6.13;5.47;;;;;;;18.11;100.00;100275.03;5113565;27;20191;-73
2021/09/15 02:11:20;;;;;;;5.60;5.20;;;;;;;18.13;100.00;100277.44;5131846;27;20172;-73
2021/09/15 02:13:46;;;;;;;5.80;5.47;;;;;;;18.08;100.00;100284.06;5125819;27;20643;-73
2021/09/15 02:16:11;;;;;;;5.87;5.37;;;;;;;18.07;100.00;100270.56;5131790;27;20185;-72
2021/09/15 02:18:37;;;;;;;5.83;5.43;;;;;;;18.13;100.00;100277.44;5131564;27;20204;-73
2021/09/15 02:21:02;;;;;;;5.47;5.17;;;;;;;18.05;100.00;100265.41;5131618;27;20164;-73
2021/09/15 02:23:27;;;;;;;5.83;5.43;;;;;;;18.08;100.00;100267.47;5131799;27;20220;-73
2021/09/15 02:25:53;;;;;;;5.80;5.30;;;;;;;18.04;100.00;100260.25;5131611;27;20183;-72
2021/09/15 02:28:18;;;;;;;5.43;4.97;;;;;;;17.90;100.00;100252.50;5131777;27;20255;-72
2021/09/15 02:30:43;;;;;;;5.80;5.33;;;;;;;17.79;100.00;100252.31;5131660;28;20465;-72
2021/09/15 02:33:09;;;;;;;5.23;4.83;;;;;;;17.78;100.00;100261.72;5131012;27;20560;-73
2021/09/15 02:35:34;;;;;;;6.00;5.60;;;;;;;17.74;100.00;100291.25;5131481;28;20643;-72
2021/09/15 02:37:59;;;;;;;5.80;5.33;;;;;;;17.79;100.00;100315.88;5131520;28;20204;-73
2021/09/15 02:40:25;;;;;;;5.37;4.97;;;;;;;17.87;100.00;100272.56;5131448;28;20196;-73
2021/09/15 02:42:50;;;;;;;5.50;5.10;;;;;;;17.89;100.00;100264.72;5131655;28;20203;-72
2021/09/15 02:45:15;;;;;;;5.90;5.20;;;;;;;17.90;100.00;100265.50;5131463;28;20180;-72
2021/09/15 02:47:40;;;;;;;6.00;5.60;;;;;;;17.90;100.00;100257.22;5131177;28;20188;-72
2021/09/15 02:50:06;;;;;;;5.33;4.93;;;;;;;17.84;100.00;100249.22;5131550;28;20172;-73
2021/09/15 02:52:32;;;;;;;5.57;5.23;;;;;;;17.87;100.00;100228.34;5131331;27;20176;-73
2021/09/15 02:54:57;;;;;;;5.50;5.20;;;;;;;17.84;100.00;100249.22;5131612;28;20168;-73
2021/09/15 02:57:22;;;;;;;6.00;5.60;;;;;;;17.77;100.00;100243.56;5131985;28;20546;-72
2021/09/15 02:59:47;;;;;;;5.70;5.20;;;;;;;17.88;100.00;100237.44;5131403;28;20634;-73
2021/09/15 03:02:13;;;;;;;6.90;6.27;;;;;;;17.55;100.00;100233.22;5131412;28;20230;-73
2021/09/15 03:04:38;;;;;;;6.83;6.33;;;;;;;17.34;100.00;100213.41;5131060;27;20216;-72
2021/09/15 03:07:04;;;;;;;6.73;6.23;;;;;;;17.42;100.00;100207.69;5131329;28;20589;-73
2021/09/15 03:09:29;;;;;;;6.47;5.97;;;;;;;17.25;100.00;100210.88;5131285;27;20651;-73
2021/09/15 03:11:54;;;;;;;6.43;5.93;;;;;;;17.36;100.00;100202.81;5131269;28;20177;-73
2021/09/15 03:14:20;;;;;;;7.00;6.40;;;;;;;17.65;100.00;100223.53;5131138;28;20176;-72
2021/09/15 03:16:45;;;;;;;5.93;5.53;;;;;;;17.75;100.00;100229.31;5131238;27;20184;-72
2021/09/15 03:19:10;;;;;;;7.07;5.80;;;;;;;17.73;100.00;100233.59;5131219;28;20268;-72
2021/09/15 03:21:35;;;;;;;6.70;6.20;;;;;;;17.70;100.00;100226.84;5131075;28;20563;-72
2021/09/15 03:24:01;;;;;;;5.87;5.47;;;;;;;17.71;100.00;100231.19;5131060;28;20632;-73
2021/09/15 03:26:26;;;;;;;5.77;5.37;;;;;;;17.84;100.00;100229.09;5131024;27;20164;-73
2021/09/15 03:28:51;;;;;;;6.03;5.53;;;;;;;17.92;100.00;100227.25;5131145;27;20180;-72
2021/09/15 03:31:17;;;;;;;6.37;5.87;;;;;;;17.95;100.00;100218.25;5131051;28;20183;-72
2021/09/15 03:33:42;;;;;;;5.57;5.17;;;;;;;18.02;100.00;100215.59;5130897;28;20168;-73
2021/09/15 03:36:08;;;;;;;5.60;5.20;;;;;;;18.05;100.00;100212.09;5130974;28;20543;-72
2021/09/15 03:38:33;;;;;;;6.97;5.77;;;;;;;18.04;100.00;100205.75;5131028;28;20211;-73
2021/09/15 03:40:59;;;;;;;5.57;5.17;;;;;;;18.09;100.00;100205.47;5112610;28;20229;-72
2021/09/15 03:43:24;;;;;;;5.70;5.30;;;;;;;18.15;100.00;100208.72;5112642;27;20230;-73
2021/09/15 03:45:49;;;;;;;5.07;4.57;;;;;;;18.16;100.00;100206.75;5133091;27;20522;-72
2021/09/15 03:48:14;;;;;;;5.27;4.97;;;;;;;18.08;100.00;100201.13;5134263;27;20173;-73
2021/09/15 03:50:40;;;;;;;5.63;5.23;;;;;;;18.11;100.00;100196.81;5134471;27;20187;-72
2021/09/15 03:53:05;;;;;;;5.30;4.90;;;;;;;18.15;100.00;100197.66;5134474;27;20237;-72
2021/09/15 03:55:30;;;;;;;5.23;4.93;;;;;;;18.13;100.00;100189.75;5134325;27;20176;-73
2021/09/15 03:57:56;;;;;;;4.73;4.43;;;;;;;18.22;100.00;100479.06;5134229;27;20200;-72
2021/09/15 04:00:21;;;;;;;5.37;4.97;;;;;;;18.23;100.00;100199.41;5134363;27;20176;-72
2021/09/15 04:02:47;;;;;;;4.70;4.40;;;;;;;18.26;100.00;100087.22;5134276;27;20169;-72
2021/09/15 04:05:12;;;;;;;5.53;5.03;;;;;;;18.28;100.00;100048.94;5133835;27;20731;-73
2021/09/15 04:07:39;;;;;;;4.77;4.47;;;;;;;18.25;100.00;100033.09;5134135;27;20175;-72
2021/09/15 04:10:06;;;;;;;5.10;4.80;;;;;;;18.25;100.00;100038.63;5134190;27;20161;-73
2021/09/15 04:12:31;;;;;;;6.57;4.80;;;;;;;18.23;100.00;100039.00;5134091;27;20245;-73
2021/09/15 04:14:56;;;;;;;5.27;3.97;;;;;;;18.29;100.00;100040.25;5133868;27;20559;-73
2021/09/15 04:17:22;;;;;;;4.47;4.17;;;;;;;18.33;100.00;100046.63;5133870;27;20192;-73
2021/09/15 04:19:47;;;;;;;4.87;4.57;;;;;;;18.37;100.00;100049.44;5133950;27;20691;-72
2021/09/15 04:22:18;;;;;;;5.93;4.57;;;;;;;18.39;100.00;100069.25;5133950;27;20271;-73
2021/09/15 04:33:17;;;;;;;5.30;4.90;;;;;;;18.40;100.00;100079.94;5030113;28;20805;-73
2021/09/15 04:35:43;;;;;;;5.50;5.10;;;;;;;18.37;100.00;100068.81;5090362;27;20212;-73
2021/09/15 04:38:08;;;;;;;5.30;5.00;;;;;;;18.41;100.00;100072.44;5133525;27;20675;-73
2021/09/15 04:40:33;;;;;;;5.40;4.90;;;;;;;18.46;100.00;100088.72;5133523;27;20187;-72
2021/09/15 04:42:59;;;;;;;8.23;4.73;;;;;;;18.46;100.00;100085.13;5133542;27;20180;-73
2021/09/15 04:45:24;;;;;;;4.70;4.37;;;;;;;18.41;100.00;100089.03;5133392;27;20584;-73
2021/09/15 04:47:50;;;;;;;4.97;4.67;;;;;;;18.21;100.00;100088.31;5133109;27;20176;-73
2021/09/15 04:50:15;;;;;;;4.50;4.20;;;;;;;18.06;100.00;100083.75;5133433;27;20212;-73
2021/09/15 04:52:40;;;;;;;5.00;4.60;;;;;;;17.99;100.00;100089.97;5133295;27;20230;-72
2021/09/15 04:55:06;;;;;;;5.00;4.60;;;;;;;17.88;100.00;100079.91;5132925;27;20540;-72
2021/09/15 04:57:31;;;;;;;4.40;4.10;;;;;;;17.82;100.00;100091.28;5133070;27;20595;-72
2021/09/15 04:59:57;;;;;;;3.87;3.57;;;;;;;17.82;100.00;100096.00;5133232;27;20676;-73
2021/09/15 05:02:22;;;;;;;4.07;3.73;;;;;;;17.89;100.00;100095.31;5133046;27;20738;-72
2021/09/15 05:04:47;;;;;;;3.87;3.60;;;;;;;17.98;100.00;100085.59;5132986;27;20191;-72
2021/09/15 05:07:13;;;;;;;4.63;4.23;;;;;;;17.97;100.00;100097.03;5133019;27;20188;-72
2021/09/15 05:09:39;;;;;;;4.50;4.10;;;;;;;18.01;100.00;100092.34;5133133;27;20169;-72
2021/09/15 05:12:04;;;;;;;4.47;4.17;;;;;;;17.95;100.00;100091.09;5133124;27;20192;-72
2021/09/15 05:14:29;;;;;;;4.07;3.70;;;;;;;18.00;100.00;100096.28;5132672;27;20209;-72
2021/09/15 05:16:55;;;;;;;4.17;3.77;;;;;;;18.00;100.00;100108.16;5132838;27;20180;-72
2021/09/15 05:19:20;;;;;;;4.30;4.00;;;;;;;17.92;100.00;100098.13;5132727;27;20654;-72
2021/09/15 05:21:45;;;;;;;4.30;4.00;;;;;;;17.82;100.00;100091.28;5132626;27;20176;-72
2021/09/15 05:24:11;;;;;;;6.17;4.20;;;;;;;17.76;100.00;100098.25;5132902;27;20646;-72
2021/09/15 05:26:36;;;;;;;4.83;4.53;;;;;;;17.69;100.00;100095.38;5132801;27;20616;-73
2021/09/15 05:29:02;;;;;;;5.77;5.37;;;;;;;17.66;100.00;100093.31;5132512;27;20215;-72
2021/09/15 05:31:27;;;;;;;6.57;6.07;;;;;;;17.69;100.00;100106.44;5132657;27;20623;-72
2021/09/15 05:33:52;;;;;;;7.17;6.50;;;;;;;17.70;100.00;100102.50;5132395;27;20201;-73
2021/09/15 05:36:18;;;;;;;7.47;6.93;;;;;;;17.69;100.00;100100.09;5132418;27;20259;-72
2021/09/15 05:38:43;;;;;;;7.57;6.87;;;;;;;17.69;100.00;100100.91;5132501;27;20280;-73
2021/09/15 05:41:09;;;;;;;7.33;6.70;;;;;;;17.63;100.00;100094.03;5132356;27;20179;-73
2021/09/15 05:43:35;;;;;;;9.10;7.40;;;;;;;17.49;100.00;100137.97;5132241;27;20187;-73
2021/09/15 05:46:00;;;;;;;7.53;7.03;;;;;;;17.45;100.00;100095.69;5132269;27;20683;-73
2021/09/15 05:48:25;;;;;;;8.50;7.77;;;;;;;17.49;100.00;100102.06;5131782;27;20225;-73
2021/09/15 05:50:50;;;;;;;7.70;7.00;;;;;;;17.62;100.00;100103.50;5132083;27;20309;-73
2021/09/15 05:53:16;;;;;;;7.40;6.83;;;;;;;17.72;100.00;100100.16;5132119;27;20179;-73
2021/09/15 05:55:41;;;;;;;7.43;6.77;;;;;;;17.83;100.00;100114.97;5132070;27;20275;-73
2021/09/15 05:58:06;;;;;;;7.10;6.60;;;;;;;17.91;100.00;100110.34;5132001;27;20286;-73
2021/09/15 06:00:32;;;;;;;6.20;5.70;;;;;;;17.94;100.00;100111.56;5132041;27;20183;-73
2021/09/15 06:02:57;;;;;;;5.20;4.90;;;;;;;18.01;100.00;100117.25;5132033;27;20196;-73
2021/09/15 06:05:23;;;;;;;6.00;5.43;;;;;;;18.17;100.00;100115.13;5131642;27;20188;-73
2021/09/15 06:07:49;;;;;;;6.13;5.73;;;;;;;18.24;100.00;100095.09;5131633;27;20168;-73
2021/09/15 06:10:15;;;;;;;6.20;5.70;;;;;;;18.23;100.00;100099.84;5132282;27;20290;-73
2021/09/15 06:12:40;;;;;;;5.27;4.83;;;;;;;18.40;100.00;100115.91;5131670;27;20734;-73
2021/09/15 06:15:06;;;;;;;4.97;4.57;;;;;;;18.55;100.00;100113.34;5131640;27;20624;-73
2021/09/15 06:17:31;;;;;;;4.83;4.53;;;;;;;18.66;100.00;100117.06;5131616;27;20200;-73
2021/09/15 06:19:57;;;;;;;4.43;4.03;;;;;;;18.76;100.00;100113.66;5131975;27;20177;-73
2021/09/15 06:22:22;;;;;;;5.53;5.13;;;;;;;18.81;100.00;100112.56;5131708;27;20286;-72
2021/09/15 06:24:53;;;;;;;4.93;4.50;;;;;;;18.70;100.00;100110.44;5131729;27;20172;-73
2021/09/15 06:27:18;;;;;;;4.20;3.90;;;;;;;18.70;100.00;100109.63;5131756;27;20167;-73
2021/09/15 06:29:44;;;;;;;4.33;4.03;;;;;;;18.92;100.00;100119.00;5131720;27;20172;-72
2021/09/15 06:32:09;;;;;;;4.77;4.37;;;;;;;19.05;100.00;100119.56;5131529;28;20938;-72
2021/09/15 06:34:35;;;;;;;4.60;4.30;;;;;;;19.11;100.00;100120.84;5131434;28;20655;-72
2021/09/15 06:37:00;;;;;;;4.10;3.80;;;;;;;19.10;100.00;100117.28;5131653;28;20207;-73
2021/09/15 06:39:25;;;;;;;4.27;3.97;;;;;;;19.03;100.00;100098.59;5131588;28;20172;-72
2021/09/15 06:41:51;;;;;;;6.30;4.07;;;;;;;19.03;100.00;100103.34;5131467;28;20173;-72
2021/09/15 06:44:16;;;;;;;3.73;3.47;;;;;;;19.13;100.00;100115.75;5131261;28;20204;-72
2021/09/15 06:46:41;;;;;;;4.00;3.70;;;;;;;19.21;100.00;100109.09;5131101;28;20179;-73
2021/09/15 06:49:07;;;;;;;3.77;3.53;;;;;;;19.26;100.00;100104.03;5131629;28;20218;-72
2021/09/15 06:51:32;;;;;;;4.40;4.10;;;;;;;19.32;100.00;100110.81;5131308;28;20179;-72
2021/09/15 06:53:57;;;;;;;4.60;4.30;;;;;;;19.43;100.00;100112.91;5131191;28;20168;-72
2021/09/15 06:56:23;;;;;;;5.03;3.90;;;;;;;19.48;100.00;100107.03;5112875;28;20173;-72
2021/09/15 06:58:48;;;;;;;4.40;4.10;;;;;;;19.51;100.00;100106.25;5131124;28;20786;-72
2021/09/15 07:01:13;;;;;;;5.17;4.77;;;;;;;19.52;100.00;100099.53;5131172;28;20173;-72
2021/09/15 07:03:39;;;;;;;4.30;4.00;;;;;;;19.58;100.00;100109.16;5131194;28;20259;-72
2021/09/15 07:06:04;;;;;;;4.30;4.00;;;;;;;19.57;100.00;100110.31;5131227;28;20597;-72
2021/09/15 07:08:29;;;;;;;5.17;4.77;;;;;;;19.50;100.00;100119.31;5131249;28;20516;-72
2021/09/15 07:10:55;;;;;;;4.43;4.13;;;;;;;19.39;100.00;100118.44;5125445;28;20220;-72
2021/09/15 07:13:20;;;;;;;4.53;4.23;;;;;;;19.33;100.00;100131.81;5130725;27;20180;-72
2021/09/15 07:15:45;;;;;;;6.73;5.53;;;;;;;19.24;100.00;100125.78;5130981;28;20268;-72
2021/09/15 07:18:11;;;;;;;6.10;5.60;;;;;;;19.07;100.00;100126.34;5131096;27;20235;-72
2021/09/15 07:20:37;;;;;;;6.00;5.50;;;;;;;18.87;100.00;100114.63;5116371;27;20549;-72
2021/09/15 07:23:02;;;;;;;6.40;5.90;;;;;;;18.68;100.00;100110.03;5135132;27;20640;-72
2021/09/15 07:25:28;;;;;;;6.23;4.90;;;;;;;18.54;100.00;100098.72;5134805;27;20174;-72
2021/09/15 07:27:55;;;;;;;6.47;5.80;;;;;;;18.42;100.00;100155.06;5134829;27;20253;-72
2021/09/15 07:30:21;;;;;;;6.50;5.90;;;;;;;18.38;100.00;100140.38;5134993;27;20210;-72
2021/09/15 07:32:46;;;;;;;6.30;5.40;;;;;;;18.38;100.00;100123.78;5134681;27;20181;-73
2021/09/15 07:35:13;;;;;;;5.23;4.87;;;;;;;18.35;100.00;100127.25;5134656;27;20218;-73
2021/09/15 07:37:38;;;;;;;6.10;5.50;;;;;;;18.26;100.00;100132.28;5134560;27;20193;-73
2021/09/15 07:40:05;;;;;;;7.23;6.63;;;;;;;18.21;100.00;100107.69;5132636;27;20179;-73
2021/09/15 07:42:31;;;;;;;6.83;6.23;;;;;;;18.24;100.00;100100.63;5132450;27;20176;-73
2021/09/15 07:44:59;;;;;;;7.83;7.13;;;;;;;18.07;100.00;100088.09;5134460;27;20233;-73
2021/09/15 07:47:24;;;;;;;7.80;7.10;;;;;;;17.92;100.00;100084.31;5134643;27;20195;-72
2021/09/15 07:49:50;;;;;;;6.97;6.40;;;;;;;18.06;100.00;100103.09;5116395;27;20168;-73
2021/09/15 07:52:16;;;;;;;7.57;6.97;;;;;;;18.24;100.00;100084.03;5134304;27;20176;-72
2021/09/15 07:54:41;;;;;;;8.10;7.30;;;;;;;18.35;100.00;100093.28;5134399;27;20173;-72
2021/09/15 07:57:07;;;;;;;7.57;6.93;;;;;;;18.41;100.00;100117.50;5137935;27;20183;-73
2021/09/15 07:59:32;;;;;;;8.27;7.63;;;;;;;18.49;100.00;100101.78;5144111;27;20176;-72
2021/09/15 08:01:58;;;;;;;7.27;6.77;;;;;;;18.57;100.00;100116.53;5135099;27;20164;-72
2021/09/15 08:04:23;;;;;;;7.77;7.27;;;;;;;18.65;100.00;100110.75;5134939;27;20189;-72
2021/09/15 08:06:49;;;;;;;7.20;6.70;;;;;;;18.71;100.00;100112.03;5134560;27;20175;-75
2021/09/15 08:09:14;;;;;;;7.47;6.90;;;;;;;18.77;100.00;100118.03;5134062;27;20804;-74
2021/09/15 08:11:39;;;;;;;7.13;6.57;;;;;;;18.78;100.00;100118.81;5134027;27;20176;-74
2021/09/15 08:14:05;;;;;;;7.50;6.80;;;;;;;18.72;100.00;100127.47;5133779;27;20704;-74
2021/09/15 08:16:30;;;;;;;7.50;6.90;;;;;;;18.83;100.00;100135.13;5133785;27;20196;-74
2021/09/15 08:18:58;;;;;;;7.27;6.67;;;;;;;18.99;100.00;100111.63;5115336;27;20299;-75
2021/09/15 08:21:24;;;;;;;6.90;6.40;;;;;;;19.11;100.00;100137.47;5134510;27;20207;-74
2021/09/15 08:23:49;;;;;;;7.27;6.77;;;;;;;19.11;100.00;100110.56;5133709;27;20247;-73
2021/09/15 08:26:17;;;;;;;8.07;7.47;;;;;;;19.30;100.00;100124.25;5134084;27;20639;-73
2021/09/15 08:28:43;;;;;;;7.77;7.00;;;;;;;19.41;100.00;100118.03;5133817;27;20191;-73
2021/09/15 08:31:10;;;;;;;8.93;8.13;;;;;;;19.46;100.00;100118.50;5132978;27;20175;-74
2021/09/15 08:33:35;;;;;;;8.93;8.13;;;;;;;19.48;100.00;100134.72;5133666;27;20165;-73
2021/09/15 08:36:01;;;;;;;8.13;7.53;;;;;;;19.59;100.00;100136.47;5133665;27;20179;-73
2021/09/15 08:38:26;;;;;;;8.87;8.27;;;;;;;19.59;100.00;100133.72;5133496;27;20564;-72
2021/09/15 08:40:55;;;;;;;9.07;8.27;;;;;;;19.47;100.00;100117.31;5133602;27;20274;-73
2021/09/15 08:43:21;;;;;;;9.20;8.23;;;;;;;19.40;100.00;100110.91;5133846;27;20173;-73
2021/09/15 08:45:47;;;;;;;9.27;8.63;;;;;;;19.53;100.00;100099.19;5115043;27;20532;-72
2021/09/15 08:48:17;;;;;;;8.97;8.07;;;;;;;19.66;100.00;100112.78;5133179;27;20180;-73
2021/09/15 08:50:46;;;;;;;8.73;8.13;;;;;;;19.73;100.00;100123.94;5133478;27;20180;-73
2021/09/15 08:53:11;;;;;;;8.43;7.73;;;;;;;19.86;100.00;100111.41;5133555;27;20180;-73
2021/09/15 08:55:37;;;;;;;8.33;7.53;;;;;;;19.70;100.00;100158.78;5133204;27;20180;-74
2021/09/15 08:58:02;;;;;;;7.83;7.33;;;;;;;19.86;100.00;100155.75;5133225;27;20288;-74
2021/09/15 09:00:28;;;;;;;8.83;8.23;;;;;;;19.86;100.00;100153.78;5133285;27;20173;-74
2021/09/15 09:02:56;;;;;;;8.50;7.93;;;;;;;19.76;100.00;100137.03;5133073;27;20184;-74
2021/09/15 09:05:21;;;;;;;8.43;7.83;;;;;;;19.94;100.00;100140.78;5132906;27;20216;-74
2021/09/15 09:07:47;;;;;;;8.67;8.07;;;;;;;20.09;100.00;100145.25;5133228;27;20196;-74
2021/09/15 09:10:15;;;;;;;8.87;8.10;;;;;;;20.11;100.00;100156.81;5132977;27;20173;-73
2021/09/15 09:12:44;;;;;;;8.47;7.87;;;;;;;20.18;100.00;100147.72;5133209;27;20458;-73
2021/09/15 09:15:25;;;;;;;8.70;8.10;;;;;;;20.41;100.00;100153.06;5132812;27;20218;-73
2021/09/15 09:17:52;;;;;;;8.47;7.67;;;;;;;20.56;100.00;100156.78;5133110;27;20202;-73
2021/09/15 09:20:31;;;;;;;9.33;8.63;;;;;;;20.63;100.00;100151.25;5132853;27;20186;-73
2021/09/15 09:23:27;;;;;;;8.83;8.23;;;;;;;20.57;100.00;100148.06;5132898;27;20161;-73
2021/09/15 09:25:57;;;;;;;7.97;7.23;;;;;;;20.71;100.00;100148.16;5110489;27;20185;-73
2021/09/15 09:28:28;;;;;;;8.53;7.93;;;;;;;20.81;100.00;100143.84;5132750;27;20180;-73
2021/09/15 09:30:59;;;;;;;8.90;8.20;;;;;;;20.89;100.00;100144.69;5132660;27;20721;-73
2021/09/15 09:33:25;;;;;;;8.20;7.60;;;;;;;21.00;100.00;100148.31;5132590;27;20199;-74
2021/09/15 09:35:56;;;;;;;8.10;7.50;;;;;;;21.07;100.00;100145.56;5113840;27;20176;-73
2021/09/15 09:38:42;;;;;;;7.87;7.20;;;;;;;21.16;100.00;100143.25;5132415;27;20196;-73
2021/09/15 09:41:20;;;;;;;7.33;6.83;;;;;;;21.19;100.00;100136.09;5132465;27;20170;-73
2021/09/15 09:43:47;;;;;;;7.50;6.93;;;;;;;21.31;100.00;100133.78;5132300;27;20276;-73
2021/09/15 09:46:18;;;;;;;7.27;6.73;;;;;;;21.40;100.00;100136.19;5132113;27;20686;-74
2021/09/15 09:48:45;;;;;;;6.77;6.27;;;;;;;21.41;100.00;100132.25;5132374;27;20262;-73
2021/09/15 09:51:30;;;;;;;6.77;6.27;;;;;;;21.35;100.00;100129.03;5132232;27;20247;-73
2021/09/15 09:54:27;;;;;;;7.43;6.93;;;;;;;21.23;100.00;100123.00;5132050;27;20560;-74
2021/09/15 09:56:54;;;;;;;7.17;6.67;;;;;;;21.44;100.00;100119.53;5132550;27;20168;-74
2021/09/15 09:59:22;;;;;;;6.13;5.70;;;;;;;21.44;100.00;100119.53;5131796;27;20214;-74
2021/09/15 10:01:49;;;;;;;6.20;5.80;;;;;;;21.46;100.00;100114.38;5131850;27;20654;-74
2021/09/15 10:04:17;;;;;;;6.90;6.40;;;;;;;21.45;100.00;100112.78;5113353;27;20583;-73
2021/09/15 10:06:43;;;;;;;5.93;5.53;;;;;;;21.47;100.00;100104.84;5113580;27;20176;-74
2021/09/15 10:09:09;;;;;;;6.70;6.20;;;;;;;21.51;100.00;100102.88;5130097;27;20180;-74
2021/09/15 10:11:37;;;;;;;6.80;6.27;;;;;;;21.35;100.00;100101.25;5131458;27;20177;-73
2021/09/15 10:14:05;;;;;;;7.27;6.67;;;;;;;21.20;100.00;100093.22;5126526;27;20653;-74
2021/09/15 10:16:34;;;;;;;6.43;5.93;;;;;;;21.24;100.00;100100.38;5122937;27;20174;-73
2021/09/15 10:19:06;;;;;;;6.97;6.47;;;;;;;21.21;100.00;100090.06;5124943;27;20207;-74
2021/09/15 10:21:34;;;;;;;7.63;7.00;;;;;;;21.35;100.00;100086.56;5130496;27;20173;-74
2021/09/15 10:24:00;;;;;;;6.50;6.07;;;;;;;21.41;100.00;100086.97;5130860;27;20268;-73
2021/09/15 10:26:32;;;;;;;6.57;6.10;;;;;;;21.40;100.00;100077.81;5126123;27;20257;-73
2021/09/15 10:29:16;;;;;;;6.37;5.90;;;;;;;21.35;100.00;100073.44;5130450;27;20181;-73
2021/09/15 10:31:51;;;;;;;7.53;7.03;;;;;;;21.50;100.00;100070.69;5128689;27;20188;-73
2021/09/15 10:37:10;;;;;;;7.33;6.77;;;;;;;21.53;100.00;100079.03;5124640;28;20530;-73
2021/09/15 10:40:12;;;;;;;7.13;6.53;;;;;;;21.59;100.00;100085.03;5128851;28;20281;-73
2021/09/15 10:42:39;;;;;;;6.93;6.33;;;;;;;21.48;100.00;100084.22;5130090;27;20545;-73
2021/09/15 10:45:10;;;;;;;7.47;6.97;;;;;;;21.34;100.00;100077.44;5131648;28;20617;-73
2021/09/15 10:47:37;;;;;;;7.37;6.77;;;;;;;21.36;100.00;100077.81;5131458;28;20181;-73
2021/09/15 10:50:03;;;;;;;7.50;6.43;;;;;;;21.34;100.00;100071.88;5130995;27;20179;-81
2021/09/15 10:52:34;;;;;;;7.10;6.70;;;;;;;21.45;100.00;100076.66;5120363;28;20180;-74
2021/09/15 10:54:59;;;;;;;6.77;6.27;;;;;;;21.48;100.00;100070.31;5133976;27;20255;-74
2021/09/15 10:57:37;;;;;;;6.77;6.27;;;;;;;21.40;100.00;100077.81;5131762;27;20258;-74
2021/09/15 11:00:21;;;;;;;6.87;6.37;;;;;;;21.39;100.00;100073.44;5127772;27;20181;-74
2021/09/15 11:02:49;;;;;;;7.50;6.80;;;;;;;21.42;100.00;100064.34;5132541;27;20192;-74
2021/09/15 11:05:27;;;;;;;7.53;7.03;;;;;;;21.43;100.00;100067.94;5130059;27;20194;-74
2021/09/15 11:07:55;;;;;;;7.57;6.87;;;;;;;21.39;100.00;100062.34;5113269;28;20177;-73
2021/09/15 11:10:35;;;;;;;7.20;6.70;;;;;;;21.36;100.00;100060.34;5114514;28;20460;-74
2021/09/15 11:13:10;;;;;;;6.53;6.13;;;;;;;21.40;100.00;100061.16;5114603;28;20170;-74
2021/09/15 11:15:47;;;;;;;7.37;6.87;;;;;;;21.49;100.00;100053.22;5114144;28;20628;-74
2021/09/15 11:18:19;;;;;;;7.47;6.97;;;;;;;21.59;100.00;100055.25;5114326;28;20204;-74
2021/09/15 11:21:10;;;;;;;7.50;6.90;;;;;;;21.65;100.00;100050.06;5096147;28;20178;-74
2021/09/15 11:23:36;;;;;;;6.70;6.30;;;;;;;21.75;100.00;100054.06;5114280;28;20165;-74
2021/09/15 11:26:03;;;;;;;7.67;6.87;;;;;;;21.78;100.00;100056.84;5114226;28;20579;-74
2021/09/15 11:28:28;;;;;;;6.93;6.43;;;;;;;21.67;100.00;100047.69;5114205;28;20166;-74